sensor_id;sensor_type;location;lat;lon;timestamp;pressure;altitude;pressure_sealevel;temperature;humidity
65376;BME280;51976;47.332;9.404;2022-09-09T00:02:10;92724.53;;;21.53;53.40
65376;BME280;51976;47.332;9.404;2022-09-09T00:04:38;92727.59;;;21.51;53.62
65376;BME280;51976;47.332;9.404;2022-09-09T00:07:49;92731.50;;;21.50;53.60
65376;BME280;51976;47.332;9.404;2022-09-09T00:10:25;92722.13;;;21.51;53.69
65376;BME280;51976;47.332;9.404;2022-09-09T00:13:15;92725.22;;;21.50;53.72
65376;BME280;51976;47.332;9.404;2022-09-09T00:16:10;92708.75;;;21.50;53.67
65376;BME280;51976;47.332;9.404;2022-09-09T00:19:42;92719.72;;;21.50;53.85
65376;BME280;51976;47.332;9.404;2022-09-09T00:21:56;92713.44;;;21.49;53.82
65376;BME280;51976;47.332;9.404;2022-09-09T00:24:32;92719.72;;;21.50;53.71
65376;BME280;51976;47.332;9.404;2022-09-09T00:27:04;92721.59;;;21.46;53.78
65376;BME280;51976;47.332;9.404;2022-09-09T00:29:45;92709.47;;;21.47;53.54
65376;BME280;51976;47.332;9.404;2022-09-09T00:32:17;92713.81;;;21.48;53.85
65376;BME280;51976;47.332;9.404;2022-09-09T00:34:52;92714.94;;;21.47;53.82
65376;BME280;51976;47.332;9.404;2022-09-09T00:37:21;92714.50;;;21.45;53.83
65376;BME280;51976;47.332;9.404;2022-09-09T00:39:48;92718.41;;;21.44;54.10
65376;BME280;51976;47.332;9.404;2022-09-09T00:42:23;92716.44;;;21.44;53.99
65376;BME280;51976;47.332;9.404;2022-09-09T00:44:58;92717.25;;;21.45;53.95
65376;BME280;51976;47.332;9.404;2022-09-09T00:47:46;92713.72;;;21.44;53.83
65376;BME280;51976;47.332;9.404;2022-09-09T00:50:31;92719.19;;;21.44;53.93
65376;BME280;51976;47.332;9.404;2022-09-09T00:53:24;92710.97;;;21.44;53.82
65376;BME280;51976;47.332;9.404;2022-09-09T00:56:16;92717.59;;;21.43;53.84
65376;BME280;51976;47.332;9.404;2022-09-09T00:58:55;92709.38;;;21.43;53.81
65376;BME280;51976;47.332;9.404;2022-09-09T01:01:23;92718.41;;;21.44;53.78
65376;BME280;51976;47.332;9.404;2022-09-09T01:03:52;92712.47;;;21.42;53.80
65376;BME280;51976;47.332;9.404;2022-09-09T01:06:32;92712.47;;;21.42;53.70
65376;BME280;51976;47.332;9.404;2022-09-09T01:09:07;92706.97;;;21.42;53.87
65376;BME280;51976;47.332;9.404;2022-09-09T01:11:48;92708.56;;;21.43;53.66
65376;BME280;51976;47.332;9.404;2022-09-09T01:14:39;92702.63;;;21.41;53.88
65376;BME280;51976;47.332;9.404;2022-09-09T01:17:19;92705.03;;;21.42;53.83
65376;BME280;51976;47.332;9.404;2022-09-09T01:20:08;92701.50;;;21.42;53.67
65376;BME280;51976;47.332;9.404;2022-09-09T01:22:50;92701.84;;;21.40;53.97
65376;BME280;51976;47.332;9.404;2022-09-09T01:25:25;92698.31;;;21.40;53.52
65376;BME280;51976;47.332;9.404;2022-09-09T01:27:56;92701.03;;;21.40;53.66
65376;BME280;51976;47.332;9.404;2022-09-09T01:30:23;92697.50;;;21.39;53.95
65376;BME280;51976;47.332;9.404;2022-09-09T01:32:53;92695.56;;;21.40;53.73
65376;BME280;51976;47.332;9.404;2022-09-09T01:35:48;92687.69;;;21.38;53.62
65376;BME280;51976;47.332;9.404;2022-09-09T01:38:16;92689.63;;;21.38;53.81
65376;BME280;51976;47.332;9.404;2022-09-09T01:40:42;92689.28;;;21.39;53.83
65376;BME280;51976;47.332;9.404;2022-09-09T01:43:09;92689.63;;;21.38;53.66
65376;BME280;51976;47.332;9.404;2022-09-09T01:45:36;92689.63;;;21.38;53.69
65376;BME280;51976;47.332;9.404;2022-09-09T01:48:03;92691.94;;;21.36;53.71
65376;BME280;51976;47.332;9.404;2022-09-09T01:50:29;92687.25;;;21.36;54.03
65376;BME280;51976;47.332;9.404;2022-09-09T01:52:58;92698.22;;;21.36;53.93
65376;BME280;51976;47.332;9.404;2022-09-09T01:55:32;92693.88;;;21.35;53.92
65376;BME280;51976;47.332;9.404;2022-09-09T01:58:28;92686.44;;;21.36;53.60
65376;BME280;51976;47.332;9.404;2022-09-09T02:01:24;92693.88;;;21.35;53.91
65376;BME280;51976;47.332;9.404;2022-09-09T02:03:57;92693.88;;;21.35;53.86
65376;BME280;51976;47.332;9.404;2022-09-09T02:06:38;92686.44;;;21.36;54.03
65376;BME280;51976;47.332;9.404;2022-09-09T02:09:07;92690.34;;;21.35;53.63
65376;BME280;51976;47.332;9.404;2022-09-09T02:11:33;92686.44;;;21.36;53.82
65376;BME280;51976;47.332;9.404;2022-09-09T02:14:14;92688.75;;;21.34;53.91
65376;BME280;51976;47.332;9.404;2022-09-09T02:16:55;92695.03;;;21.34;53.66
65376;BME280;51976;47.332;9.404;2022-09-09T02:19:32;92695.81;;;21.35;53.93
65376;BME280;51976;47.332;9.404;2022-09-09T02:21:59;92696.63;;;21.35;54.07
65376;BME280;51976;47.332;9.404;2022-09-09T02:24:27;92699.72;;;21.34;53.75
65376;BME280;51976;47.332;9.404;2022-09-09T02:26:55;92699.28;;;21.32;53.82
65376;BME280;51976;47.332;9.404;2022-09-09T02:29:26;92698.16;;;21.33;53.64
65376;BME280;51976;47.332;9.404;2022-09-09T02:31:55;92709.13;;;21.33;53.77
65376;BME280;51976;47.332;9.404;2022-09-09T02:34:24;92693.81;;;21.32;53.82
65376;BME280;51976;47.332;9.404;2022-09-09T02:36:51;92698.50;;;21.31;54.02
65376;BME280;51976;47.332;9.404;2022-09-09T02:39:18;92701.69;;;21.33;53.70
65376;BME280;51976;47.332;9.404;2022-09-09T02:41:44;92693.00;;;21.31;54.01
65376;BME280;51976;47.332;9.404;2022-09-09T02:44:12;92695.75;;;21.31;53.88
65376;BME280;51976;47.332;9.404;2022-09-09T02:47:05;92700.09;;;21.32;53.72
65376;BME280;51976;47.332;9.404;2022-09-09T02:49:58;92706.72;;;21.31;53.98
65376;BME280;51976;47.332;9.404;2022-09-09T02:52:36;92705.13;;;21.30;53.99
65376;BME280;51976;47.332;9.404;2022-09-09T02:55:18;92706.28;;;21.29;53.85
65376;BME280;51976;47.332;9.404;2022-09-09T02:57:47;92705.47;;;21.28;53.95
65376;BME280;51976;47.332;9.404;2022-09-09T03:00:13;92698.41;;;21.27;53.84
65376;BME280;51976;47.332;9.404;2022-09-09T03:02:38;92706.28;;;21.29;53.68
65376;BME280;51976;47.332;9.404;2022-09-09T03:05:05;92708.22;;;21.28;53.69
65376;BME280;51976;47.332;9.404;2022-09-09T03:07:31;92707.06;;;21.30;53.83
65376;BME280;51976;47.332;9.404;2022-09-09T03:09:56;92709.72;;;21.26;53.95
65376;BME280;51976;47.332;9.404;2022-09-09T03:12:23;92708.56;;;21.27;53.65
65376;BME280;51976;47.332;9.404;2022-09-09T03:14:48;92706.63;;;21.27;53.84
65376;BME280;51976;47.332;9.404;2022-09-09T03:17:14;92708.91;;;21.25;53.86
65376;BME280;51976;47.332;9.404;2022-09-09T03:19:39;92712.47;;;21.26;54.05
65376;BME280;51976;47.332;9.404;2022-09-09T03:22:05;92709.72;;;21.26;53.82
65376;BME280;51976;47.332;9.404;2022-09-09T03:24:30;92707.31;;;21.24;53.74
65376;BME280;51976;47.332;9.404;2022-09-09T03:26:56;92711.22;;;21.23;54.04
65376;BME280;51976;47.332;9.404;2022-09-09T03:29:21;92716.34;;;21.25;53.78
65376;BME280;51976;47.332;9.404;2022-09-09T03:31:46;92713.59;;;21.25;53.88
65376;BME280;51976;47.332;9.404;2022-09-09T03:34:12;92716.69;;;21.23;53.90
65376;BME280;51976;47.332;9.404;2022-09-09T03:36:39;92720.22;;;21.24;54.07
65376;BME280;51976;47.332;9.404;2022-09-09T03:39:04;92725.72;;;21.24;54.02
65376;BME280;51976;47.332;9.404;2022-09-09T03:41:30;92715.53;;;21.24;53.90
65376;BME280;51976;47.332;9.404;2022-09-09T03:43:55;92712.00;;;21.24;53.73
65376;BME280;51976;47.332;9.404;2022-09-09T03:46:23;92720.59;;;21.22;53.83
65376;BME280;51976;47.332;9.404;2022-09-09T03:48:48;92718.28;;;21.24;53.85
65376;BME280;51976;47.332;9.404;2022-09-09T03:51:14;92713.94;;;21.23;53.88
65376;BME280;51976;47.332;9.404;2022-09-09T03:53:41;92713.50;;;21.21;54.12
65376;BME280;51976;47.332;9.404;2022-09-09T03:56:07;92714.31;;;21.22;54.10
65376;BME280;51976;47.332;9.404;2022-09-09T03:58:34;92717.84;;;21.22;54.00
65376;BME280;51976;47.332;9.404;2022-09-09T04:01:04;92713.03;;;21.19;54.08
65376;BME280;51976;47.332;9.404;2022-09-09T04:03:30;92716.69;;;21.23;53.89
65376;BME280;51976;47.332;9.404;2022-09-09T04:05:58;92713.03;;;21.19;54.01
65376;BME280;51976;47.332;9.404;2022-09-09T04:08:24;92706.44;;;21.20;53.99
65376;BME280;51976;47.332;9.404;2022-09-09T04:10:53;92715.09;;;21.22;53.97
65376;BME280;51976;47.332;9.404;2022-09-09T04:13:23;92709.97;;;21.21;54.11
65376;BME280;51976;47.332;9.404;2022-09-09T04:15:56;92711.91;;;21.20;54.21
65376;BME280;51976;47.332;9.404;2022-09-09T04:18:23;92711.91;;;21.20;53.81
65376;BME280;51976;47.332;9.404;2022-09-09T04:20:50;92715.09;;;21.22;53.78
65376;BME280;51976;47.332;9.404;2022-09-09T04:23:16;92714.66;;;21.20;54.11
65376;BME280;51976;47.332;9.404;2022-09-09T04:25:51;92720.94;;;21.21;54.08
65376;BME280;51976;47.332;9.404;2022-09-09T04:28:18;92716.56;;;21.20;53.97
65376;BME280;51976;47.332;9.404;2022-09-09T04:30:45;92727.22;;;21.21;53.93
65376;BME280;51976;47.332;9.404;2022-09-09T04:33:11;92720.13;;;21.20;54.11
65376;BME280;51976;47.332;9.404;2022-09-09T04:35:37;92714.16;;;21.18;54.16
65376;BME280;51976;47.332;9.404;2022-09-09T04:38:03;92711.91;;;21.20;54.20
65376;BME280;51976;47.332;9.404;2022-09-09T04:40:29;92711.44;;;21.18;54.00
65376;BME280;51976;47.332;9.404;2022-09-09T04:42:57;92711.09;;;21.20;54.06
65376;BME280;51976;47.332;9.404;2022-09-09T04:45:23;92707.53;;;21.19;53.94
65376;BME280;51976;47.332;9.404;2022-09-09T04:47:48;92711.44;;;21.18;54.05
65376;BME280;51976;47.332;9.404;2022-09-09T04:50:14;92710.63;;;21.18;53.92
65376;BME280;51976;47.332;9.404;2022-09-09T04:52:39;92711.44;;;21.18;53.89
65376;BME280;51976;47.332;9.404;2022-09-09T04:55:06;92707.91;;;21.18;54.06
65376;BME280;51976;47.332;9.404;2022-09-09T04:59:58;92714.97;;;21.19;54.06
65376;BME280;51976;47.332;9.404;2022-09-09T05:02:25;92725.13;;;21.18;53.97
65376;BME280;51976;47.332;9.404;2022-09-09T05:04:51;92724.34;;;21.18;54.08
65376;BME280;51976;47.332;9.404;2022-09-09T05:07:16;92731.41;;;21.19;54.08
65376;BME280;51976;47.332;9.404;2022-09-09T05:09:42;92726.28;;;21.17;54.17
65376;BME280;51976;47.332;9.404;2022-09-09T05:12:07;92725.94;;;21.19;53.79
65376;BME280;51976;47.332;9.404;2022-09-09T05:14:33;92734.50;;;21.17;54.25
65376;BME280;51976;47.332;9.404;2022-09-09T05:17:00;92733.38;;;21.18;53.93
65376;BME280;51976;47.332;9.404;2022-09-09T05:19:26;92734.50;;;21.17;54.20
65376;BME280;51976;47.332;9.404;2022-09-09T05:21:51;92729.03;;;21.17;54.27
65376;BME280;51976;47.332;9.404;2022-09-09T05:24:17;92734.50;;;21.17;54.21
65376;BME280;51976;47.332;9.404;2022-09-09T05:26:42;92732.56;;;21.18;54.12
65376;BME280;51976;47.332;9.404;2022-09-09T05:29:08;92734.50;;;21.17;54.08
65376;BME280;51976;47.332;9.404;2022-09-09T05:31:34;92741.13;;;21.16;54.22
65376;BME280;51976;47.332;9.404;2022-09-09T05:33:59;92735.31;;;21.18;53.85
65376;BME280;51976;47.332;9.404;2022-09-09T05:38:50;92741.47;;;21.15;53.99
65376;BME280;51976;47.332;9.404;2022-09-09T05:41:19;92745.47;;;21.17;54.17
65376;BME280;51976;47.332;9.404;2022-09-09T05:43:45;92740.78;;;21.18;53.97
65376;BME280;51976;47.332;9.404;2022-09-09T05:46:22;92743.88;;;21.16;53.98
65376;BME280;51976;47.332;9.404;2022-09-09T05:51:17;92750.94;;;21.17;54.06
65376;BME280;51976;47.332;9.404;2022-09-09T05:53:44;92751.66;;;21.14;54.22
65376;BME280;51976;47.332;9.404;2022-09-09T05:56:15;92745.47;;;21.17;53.99
65376;BME280;51976;47.332;9.404;2022-09-09T05:58:41;92750.50;;;21.15;53.91
65376;BME280;51976;47.332;9.404;2022-09-09T06:01:14;92752.44;;;21.15;53.90
65376;BME280;51976;47.332;9.404;2022-09-09T06:06:08;92754.41;;;21.14;54.13
65376;BME280;51976;47.332;9.404;2022-09-09T06:08:36;92747.75;;;21.15;54.14
65376;BME280;51976;47.332;9.404;2022-09-09T06:11:05;92751.66;;;21.14;54.18
65376;BME280;51976;47.332;9.404;2022-09-09T06:13:31;92751.66;;;21.14;54.01
65376;BME280;51976;47.332;9.404;2022-09-09T06:18:24;92750.50;;;21.15;54.07
65376;BME280;51976;47.332;9.404;2022-09-09T06:21:02;92747.31;;;21.13;53.98
65376;BME280;51976;47.332;9.404;2022-09-09T06:23:32;92742.97;;;21.12;53.98
65376;BME280;51976;47.332;9.404;2022-09-09T06:26:09;92742.63;;;21.14;54.03
65376;BME280;51976;47.332;9.404;2022-09-09T06:28:36;92741.47;;;21.15;54.17
65376;BME280;51976;47.332;9.404;2022-09-09T06:31:04;92733.59;;;21.13;54.06
65376;BME280;51976;47.332;9.404;2022-09-09T06:33:37;92730.53;;;21.15;54.00
65376;BME280;51976;47.332;9.404;2022-09-09T06:36:09;92736.00;;;21.15;54.13
65376;BME280;51976;47.332;9.404;2022-09-09T06:38:36;92727.44;;;21.16;53.91
65376;BME280;51976;47.332;9.404;2022-09-09T06:43:27;92731.31;;;21.15;54.11
65376;BME280;51976;47.332;9.404;2022-09-09T06:45:54;92736.00;;;21.15;54.03
65376;BME280;51976;47.332;9.404;2022-09-09T06:48:20;92741.13;;;21.16;54.20
65376;BME280;51976;47.332;9.404;2022-09-09T06:50:46;92729.72;;;21.14;53.99
65376;BME280;51976;47.332;9.404;2022-09-09T06:53:11;92722.66;;;21.13;54.23
65376;BME280;51976;47.332;9.404;2022-09-09T06:55:37;92728.94;;;21.14;54.15
65376;BME280;51976;47.332;9.404;2022-09-09T06:58:08;92728.94;;;21.14;54.15
65376;BME280;51976;47.332;9.404;2022-09-09T07:00:33;92730.53;;;21.15;54.14
65376;BME280;51976;47.332;9.404;2022-09-09T07:02:59;92733.25;;;21.15;54.18
65376;BME280;51976;47.332;9.404;2022-09-09T07:05:24;92741.13;;;21.16;54.05
65376;BME280;51976;47.332;9.404;2022-09-09T07:07:51;92739.09;;;21.13;53.83
65376;BME280;51976;47.332;9.404;2022-09-09T07:12:43;92739.88;;;21.14;53.87
65376;BME280;51976;47.332;9.404;2022-09-09T07:15:09;92741.47;;;21.15;53.94
65376;BME280;51976;47.332;9.404;2022-09-09T07:17:34;92750.50;;;21.15;53.97
65376;BME280;51976;47.332;9.404;2022-09-09T07:20:01;92747.75;;;21.15;54.08
65376;BME280;51976;47.332;9.404;2022-09-09T07:22:27;92745.47;;;21.17;53.77
65376;BME280;51976;47.332;9.404;2022-09-09T07:24:53;92740.78;;;21.18;53.75
65376;BME280;51976;47.332;9.404;2022-09-09T07:27:18;92745.03;;;21.15;53.88
65376;BME280;51976;47.332;9.404;2022-09-09T07:29:44;92741.47;;;21.15;54.00
65376;BME280;51976;47.332;9.404;2022-09-09T07:34:36;92745.03;;;21.15;53.85
65376;BME280;51976;47.332;9.404;2022-09-09T07:37:02;92745.03;;;21.15;53.87
65376;BME280;51976;47.332;9.404;2022-09-09T07:39:27;92746.97;;;21.15;53.92
65376;BME280;51976;47.332;9.404;2022-09-09T07:41:53;92745.03;;;21.15;54.10
65376;BME280;51976;47.332;9.404;2022-09-09T07:44:23;92757.94;;;21.15;54.01
65376;BME280;51976;47.332;9.404;2022-09-09T07:46:52;92769.69;;;21.15;53.94
65376;BME280;51976;47.332;9.404;2022-09-09T07:49:17;92769.69;;;21.15;53.89
65376;BME280;51976;47.332;9.404;2022-09-09T07:54:12;92785.34;;;21.15;53.77
65376;BME280;51976;47.332;9.404;2022-09-09T07:56:39;92786.13;;;21.15;54.14
65376;BME280;51976;47.332;9.404;2022-09-09T07:59:05;92783.41;;;21.15;54.10
65376;BME280;51976;47.332;9.404;2022-09-09T08:01:36;92785.34;;;21.15;53.91
65376;BME280;51976;47.332;9.404;2022-09-09T08:04:09;92788.88;;;21.15;53.91
65376;BME280;51976;47.332;9.404;2022-09-09T08:06:37;92791.63;;;21.15;54.01
65376;BME280;51976;47.332;9.404;2022-09-09T08:09:04;92794.81;;;21.17;53.99
65376;BME280;51976;47.332;9.404;2022-09-09T08:11:32;92786.59;;;21.17;54.17
65376;BME280;51976;47.332;9.404;2022-09-09T08:13:58;92794.81;;;21.17;53.86
65376;BME280;51976;47.332;9.404;2022-09-09T08:16:26;92786.13;;;21.15;53.98
65376;BME280;51976;47.332;9.404;2022-09-09T08:18:53;92794.81;;;21.17;54.10
65376;BME280;51976;47.332;9.404;2022-09-09T08:23:47;92791.72;;;21.19;54.20
65376;BME280;51976;47.332;9.404;2022-09-09T08:26:18;92790.59;;;21.20;54.15
65376;BME280;51976;47.332;9.404;2022-09-09T08:28:46;92790.25;;;21.21;54.19
65376;BME280;51976;47.332;9.404;2022-09-09T08:31:15;92789.78;;;21.19;54.30
65376;BME280;51976;47.332;9.404;2022-09-09T08:33:42;92789.47;;;21.21;54.46
65376;BME280;51976;47.332;9.404;2022-09-09T08:36:12;92786.38;;;21.22;54.23
65376;BME280;51976;47.332;9.404;2022-09-09T08:38:40;92787.97;;;21.23;54.47
65376;BME280;51976;47.332;9.404;2022-09-09T08:47:28;92793.47;;;21.23;54.79
65376;BME280;51976;47.332;9.404;2022-09-09T08:50:04;92795.84;;;21.25;54.36
65376;BME280;51976;47.332;9.404;2022-09-09T08:55:52;92800.53;;;21.24;54.41
65376;BME280;51976;47.332;9.404;2022-09-09T08:58:30;92794.00;;;21.29;54.48
65376;BME280;51976;47.332;9.404;2022-09-09T09:07:11;92804.88;;;21.25;54.91
65376;BME280;51976;47.332;9.404;2022-09-09T09:09:50;92803.72;;;21.26;54.67
65376;BME280;51976;47.332;9.404;2022-09-09T09:12:26;92801.78;;;21.27;55.13
65376;BME280;51976;47.332;9.404;2022-09-09T09:14:52;92797.91;;;21.28;54.95
65376;BME280;51976;47.332;9.404;2022-09-09T09:17:20;92799.84;;;21.27;55.04
65376;BME280;51976;47.332;9.404;2022-09-09T09:19:47;92806.13;;;21.28;55.38
65376;BME280;51976;47.332;9.404;2022-09-09T09:22:21;92816.75;;;21.30;55.10
65376;BME280;51976;47.332;9.404;2022-09-09T09:25:02;92807.72;;;21.29;55.27
65376;BME280;51976;47.332;9.404;2022-09-09T09:28:02;92804.63;;;21.31;55.16
65376;BME280;51976;47.332;9.404;2022-09-09T09:30:59;92810.91;;;21.31;55.35
65376;BME280;51976;47.332;9.404;2022-09-09T09:33:38;92803.56;;;21.35;55.45
65376;BME280;51976;47.332;9.404;2022-09-09T09:36:07;92794.91;;;21.33;55.32
65376;BME280;51976;47.332;9.404;2022-09-09T09:38:34;92803.31;;;21.40;55.50
65376;BME280;51976;47.332;9.404;2022-09-09T09:41:01;92798.97;;;21.39;55.00
65376;BME280;51976;47.332;9.404;2022-09-09T09:43:32;92797.03;;;21.40;55.33
65376;BME280;51976;47.332;9.404;2022-09-09T09:45:58;92795.88;;;21.41;55.46
65376;BME280;51976;47.332;9.404;2022-09-09T09:48:25;92803.41;;;21.44;55.34
65376;BME280;51976;47.332;9.404;2022-09-09T09:50:56;92799.75;;;21.40;55.42
65376;BME280;51976;47.332;9.404;2022-09-09T09:53:30;92802.06;;;21.38;55.61
65376;BME280;51976;47.332;9.404;2022-09-09T09:56:01;92789.94;;;21.39;55.40
65376;BME280;51976;47.332;9.404;2022-09-09T09:58:30;92788.00;;;21.39;55.67
65376;BME280;51976;47.332;9.404;2022-09-09T10:00:56;92788.34;;;21.38;55.45
65376;BME280;51976;47.332;9.404;2022-09-09T10:03:32;92789.94;;;21.39;55.40
65376;BME280;51976;47.332;9.404;2022-09-09T10:05:58;92787.19;;;21.39;55.50
65376;BME280;51976;47.332;9.404;2022-09-09T10:08:25;92778.88;;;21.35;55.24
65376;BME280;51976;47.332;9.404;2022-09-09T10:11:02;92789.50;;;21.37;55.32
65376;BME280;51976;47.332;9.404;2022-09-09T10:16:45;92790.13;;;21.18;54.66
65376;BME280;51976;47.332;9.404;2022-09-09T10:19:20;92788.44;;;21.13;53.91
65376;BME280;51976;47.332;9.404;2022-09-09T10:22:12;92793.69;;;21.06;53.37
65376;BME280;51976;47.332;9.404;2022-09-09T10:28:00;92789.81;;;21.07;52.53
65376;BME280;51976;47.332;9.404;2022-09-09T10:31:17;92788.22;;;21.06;52.53
65376;BME280;51976;47.332;9.404;2022-09-09T10:36:43;92780.00;;;21.06;52.96
65376;BME280;51976;47.332;9.404;2022-09-09T10:39:34;92782.75;;;21.06;53.35
65376;BME280;51976;47.332;9.404;2022-09-09T10:42:06;92781.41;;;21.00;53.65
65376;BME280;51976;47.332;9.404;2022-09-09T10:45:02;92779.72;;;20.95;53.85
65376;BME280;51976;47.332;9.404;2022-09-09T10:48:00;92785.84;;;21.05;54.00
65376;BME280;51976;47.332;9.404;2022-09-09T10:50:41;92790.91;;;20.90;54.46
65376;BME280;51976;47.332;9.404;2022-09-09T10:53:30;92781.19;;;21.05;53.72
65376;BME280;51976;47.332;9.404;2022-09-09T10:56:05;92779.94;;;21.31;53.24
65376;BME280;51976;47.332;9.404;2022-09-09T10:58:40;92775.63;;;21.30;53.26
65376;BME280;51976;47.332;9.404;2022-09-09T11:01:19;92768.22;;;21.46;53.15
65376;BME280;51976;47.332;9.404;2022-09-09T11:03:50;92757.44;;;21.53;53.08
65376;BME280;51976;47.332;9.404;2022-09-09T11:06:21;92751.06;;;21.49;53.17
65376;BME280;51976;47.332;9.404;2022-09-09T11:08:48;92749.91;;;21.66;53.02
65376;BME280;51976;47.332;9.404;2022-09-09T11:11:27;92753.19;;;21.71;52.80
65376;BME280;51976;47.332;9.404;2022-09-09T11:14:03;92740.81;;;21.77;52.75
65376;BME280;51976;47.332;9.404;2022-09-09T11:16:51;92742.59;;;21.85;52.77
65376;BME280;51976;47.332;9.404;2022-09-09T11:19:32;92740.00;;;21.92;52.59
65376;BME280;51976;47.332;9.404;2022-09-09T11:22:43;92742.47;;;21.98;52.70
65376;BME280;51976;47.332;9.404;2022-09-09T11:24:56;92750.47;;;22.03;52.77
65376;BME280;51976;47.332;9.404;2022-09-09T11:27:29;92778.78;;;21.91;53.05
65376;BME280;51976;47.332;9.404;2022-09-09T11:30:14;92786.50;;;21.85;52.86
65376;BME280;51976;47.332;9.404;2022-09-09T11:33:01;92791.97;;;21.85;52.36
65376;BME280;51976;47.332;9.404;2022-09-09T11:35:47;92798.97;;;21.83;51.84
65376;BME280;51976;47.332;9.404;2022-09-09T11:38:27;92809.16;;;21.82;52.33
65376;BME280;51976;47.332;9.404;2022-09-09T11:40:58;92815.78;;;21.81;52.61
65376;BME280;51976;47.332;9.404;2022-09-09T11:43:29;92792.66;;;21.67;52.51
65376;BME280;51976;47.332;9.404;2022-09-09T11:45:58;92817.81;;;21.84;52.59
65376;BME280;51976;47.332;9.404;2022-09-09T11:48:36;92811.53;;;21.84;52.80
65376;BME280;51976;47.332;9.404;2022-09-09T11:51:06;92810.47;;;21.88;53.09
65376;BME280;51976;47.332;9.404;2022-09-09T11:53:47;92815.69;;;21.93;53.03
65376;BME280;51976;47.332;9.404;2022-09-09T11:56:25;92811.34;;;21.92;53.65
65376;BME280;51976;47.332;9.404;2022-09-09T11:59:00;92819.94;;;21.91;53.71
65376;BME280;51976;47.332;9.404;2022-09-09T12:01:36;92819.13;;;21.90;54.13
65376;BME280;51976;47.332;9.404;2022-09-09T12:06:56;92812.16;;;21.93;54.32
65376;BME280;51976;47.332;9.404;2022-09-09T12:09:33;92811.34;;;21.92;54.53
65376;BME280;51976;47.332;9.404;2022-09-09T12:12:07;92807.91;;;21.95;53.79
65376;BME280;51976;47.332;9.404;2022-09-09T12:14:38;92794.44;;;21.90;53.57
65376;BME280;51976;47.332;9.404;2022-09-09T12:17:19;92800.56;;;21.84;53.73
65376;BME280;51976;47.332;9.404;2022-09-09T12:19:45;92791.78;;;21.78;54.26
65376;BME280;51976;47.332;9.404;2022-09-09T12:22:35;92795.06;;;21.84;54.17
65376;BME280;51976;47.332;9.404;2022-09-09T12:25:28;92786.50;;;21.85;53.95
65376;BME280;51976;47.332;9.404;2022-09-09T12:28:06;92793.47;;;21.83;53.87
65376;BME280;51976;47.332;9.404;2022-09-09T12:31:05;92782.16;;;21.84;53.90
65376;BME280;51976;47.332;9.404;2022-09-09T12:33:35;92782.59;;;21.86;52.69
65376;BME280;51976;47.332;9.404;2022-09-09T12:36:03;92774.19;;;21.79;52.55
65376;BME280;51976;47.332;9.404;2022-09-09T12:38:34;92772.22;;;21.95;51.97
65376;BME280;51976;47.332;9.404;2022-09-09T12:41:01;92771.06;;;21.96;52.09
65376;BME280;51976;47.332;9.404;2022-09-09T12:43:27;92761.06;;;21.88;52.54
65376;BME280;51976;47.332;9.404;2022-09-09T12:45:59;92755.84;;;21.83;52.42
65376;BME280;51976;47.332;9.404;2022-09-09T12:48:39;92756.66;;;21.84;52.84
65376;BME280;51976;47.332;9.404;2022-09-09T12:51:18;92753.63;;;21.89;52.48
65376;BME280;51976;47.332;9.404;2022-09-09T12:53:44;92745.00;;;22.03;52.26
65376;BME280;51976;47.332;9.404;2022-09-09T12:56:19;92743.84;;;22.04;52.23
65376;BME280;51976;47.332;9.404;2022-09-09T12:58:47;92750.13;;;22.04;51.06
65376;BME280;51976;47.332;9.404;2022-09-09T13:01:25;92743.22;;;22.10;50.56
65376;BME280;51976;47.332;9.404;2022-09-09T13:03:52;92743.94;;;22.07;51.03
65376;BME280;51976;47.332;9.404;2022-09-09T13:06:21;92749.31;;;22.04;51.06
65376;BME280;51976;47.332;9.404;2022-09-09T13:08:56;92746.47;;;22.16;50.84
65376;BME280;51976;47.332;9.404;2022-09-09T13:11:41;92753.94;;;22.15;50.87
65376;BME280;51976;47.332;9.404;2022-09-09T13:14:17;92749.03;;;22.24;50.43
65376;BME280;51976;47.332;9.404;2022-09-09T13:16:55;92738.31;;;22.35;48.88
65376;BME280;51976;47.332;9.404;2022-09-09T13:19:21;92735.28;;;22.24;48.17
65376;BME280;51976;47.332;9.404;2022-09-09T13:21:47;92743.97;;;22.26;47.54
65376;BME280;51976;47.332;9.404;2022-09-09T13:24:32;92737.50;;;22.19;46.70
65376;BME280;51976;47.332;9.404;2022-09-09T13:27:00;92731.88;;;22.12;46.69
65376;BME280;51976;47.332;9.404;2022-09-09T13:29:30;92733.97;;;22.18;46.31
65376;BME280;51976;47.332;9.404;2022-09-09T13:32:06;92733.97;;;22.18;46.44
65376;BME280;51976;47.332;9.404;2022-09-09T13:34:38;92727.16;;;22.28;46.81
65376;BME280;51976;47.332;9.404;2022-09-09T13:37:13;92729.72;;;22.37;46.79
65376;BME280;51976;47.332;9.404;2022-09-09T13:39:51;92733.97;;;22.34;46.86
65376;BME280;51976;47.332;9.404;2022-09-09T13:42:26;92726.69;;;22.42;47.10
65376;BME280;51976;47.332;9.404;2022-09-09T13:44:53;92725.88;;;22.41;47.36
65376;BME280;51976;47.332;9.404;2022-09-09T13:47:32;92723.56;;;22.43;47.30
65376;BME280;51976;47.332;9.404;2022-09-09T13:49:58;92724.06;;;22.49;47.51
65376;BME280;51976;47.332;9.404;2022-09-09T13:52:24;92720.63;;;22.52;47.66
65376;BME280;51976;47.332;9.404;2022-09-09T13:54:52;92713.44;;;22.47;47.79
65376;BME280;51976;47.332;9.404;2022-09-09T13:57:21;92716.34;;;22.35;48.17
65376;BME280;51976;47.332;9.404;2022-09-09T13:59:48;92704.03;;;22.29;48.16
65376;BME280;51976;47.332;9.404;2022-09-09T14:02:15;92709.25;;;22.34;48.06
65376;BME280;51976;47.332;9.404;2022-09-09T14:04:41;92716.25;;;22.32;48.49
65376;BME280;51976;47.332;9.404;2022-09-09T14:07:11;92707.66;;;22.33;48.27
65376;BME280;51976;47.332;9.404;2022-09-09T14:09:38;92705.63;;;22.30;48.86
65376;BME280;51976;47.332;9.404;2022-09-09T14:12:04;92706.66;;;22.41;48.37
65376;BME280;51976;47.332;9.404;2022-09-09T14:14:30;92691.91;;;22.49;48.62
65376;BME280;51976;47.332;9.404;2022-09-09T14:16:55;92700.94;;;22.50;48.82
65376;BME280;51976;47.332;9.404;2022-09-09T14:19:20;92693.16;;;22.52;48.79